createdAt,value
2022-11-10T00:00:28.582Z,35.43
2022-11-10T00:03:00.708Z,35.70
2022-11-10T00:05:28.223Z,35.93
2022-11-10T00:07:55.400Z,34.67
2022-11-10T00:10:23.013Z,33.77
2022-11-10T00:12:52.332Z,33.70
2022-11-10T00:15:40.125Z,34.93
2022-11-10T00:18:07.387Z,32.33
2022-11-10T00:20:34.672Z,31.43
2022-11-10T00:23:02.255Z,33.17
2022-11-10T00:25:31.715Z,30.70
2022-11-10T00:28:02.688Z,34.50
2022-11-10T00:30:30.048Z,33.00
2022-11-10T00:32:58.788Z,31.27
2022-11-10T00:35:25.976Z,32.37
2022-11-10T00:37:53.566Z,31.73
2022-11-10T00:40:20.782Z,29.67
2022-11-10T00:42:48.234Z,30.97
2022-11-10T00:45:15.622Z,28.87
2022-11-10T00:47:46.126Z,29.93
2022-11-10T00:50:13.578Z,30.13
2022-11-10T00:52:41.591Z,31.50
2022-11-10T00:55:09.212Z,30.48
2022-11-10T00:57:36.876Z,33.35
2022-11-10T01:00:04.654Z,33.65
2022-11-10T01:02:32.430Z,35.20
2022-11-10T01:04:59.854Z,36.13
2022-11-10T01:07:27.418Z,38.27
2022-11-10T01:09:54.829Z,36.72
2022-11-10T01:12:23.363Z,42.40
2022-11-10T01:15:01.487Z,39.47
2022-11-10T01:17:37.217Z,41.58
2022-11-10T01:20:05.002Z,42.42
2022-11-10T01:22:55.895Z,40.57
2022-11-10T01:25:23.909Z,46.40
2022-11-10T01:27:53.277Z,42.13
2022-11-10T01:30:20.688Z,48.77
2022-11-10T01:32:48.059Z,40.93
2022-11-10T01:35:18.056Z,38.35
2022-11-10T01:37:45.637Z,37.85
2022-11-10T01:40:13.812Z,39.23
2022-11-10T01:42:49.973Z,43.43
2022-11-10T01:45:23.336Z,42.42
2022-11-10T01:47:55.527Z,39.43
2022-11-10T01:50:25.816Z,39.23
2022-11-10T01:52:56.199Z,41.33
2022-11-10T01:55:24.144Z,41.60
2022-11-10T01:57:52.712Z,42.00
2022-11-10T02:00:20.724Z,39.45
2022-11-10T02:03:00.214Z,58.42
2022-11-10T02:05:27.737Z,38.93
2022-11-10T02:07:56.888Z,47.30
2022-11-10T02:10:24.541Z,39.08
2022-11-10T02:12:53.305Z,41.88
2022-11-10T02:15:21.945Z,49.42
2022-11-10T02:17:49.525Z,44.50
2022-11-10T02:20:19.963Z,48.20
2022-11-10T02:22:57.406Z,37.15
2022-11-10T02:25:28.986Z,54.72
2022-11-10T02:28:00.258Z,39.03
2022-11-10T02:30:30.150Z,57.23
2022-11-10T02:32:59.521Z,39.30
2022-11-10T02:35:34.083Z,37.00
2022-11-10T02:38:05.930Z,35.47
2022-11-10T02:40:35.886Z,31.95
2022-11-10T02:43:12.668Z,38.43
2022-11-10T02:45:44.136Z,33.55
2022-11-10T02:48:15.462Z,35.37
2022-11-10T02:50:44.144Z,33.60
2022-11-10T02:53:11.496Z,31.27
2022-11-10T02:55:42.675Z,31.53
2022-11-10T02:58:11.205Z,31.03
2022-11-10T03:00:38.368Z,33.37
2022-11-10T03:03:05.699Z,31.17
2022-11-10T03:05:33.800Z,38.10
2022-11-10T03:08:03.938Z,43.50
2022-11-10T03:10:31.782Z,33.47
2022-11-10T03:13:02.216Z,40.70
2022-11-10T03:15:30.043Z,33.90
2022-11-10T03:18:03.963Z,33.53
2022-11-10T03:20:31.813Z,32.60
2022-11-10T03:23:04.141Z,36.57
2022-11-10T03:25:38.025Z,33.75
2022-11-10T03:28:07.808Z,33.67
2022-11-10T03:30:37.334Z,35.60
2022-11-10T03:33:07.588Z,33.23
2022-11-10T03:35:35.660Z,37.10
2022-11-10T03:38:04.948Z,32.00
2022-11-10T03:40:45.521Z,31.47
2022-11-10T03:43:19.694Z,33.13
2022-11-10T03:45:47.221Z,63.03
2022-11-10T03:48:16.977Z,30.33
2022-11-10T03:50:47.610Z,31.17
2022-11-10T03:53:15.942Z,30.83
2022-11-10T03:55:43.700Z,33.80
2022-11-10T03:58:13.679Z,31.70
2022-11-10T04:00:46.853Z,28.70
2022-11-10T04:03:14.094Z,28.97
2022-11-10T04:06:05.976Z,30.77
2022-11-10T04:08:54.228Z,37.60
2022-11-10T04:11:41.295Z,28.93
2022-11-10T04:14:27.531Z,27.60
2022-11-10T04:16:57.292Z,29.60
2022-11-10T04:19:24.714Z,26.13
2022-11-10T04:21:52.207Z,24.57
2022-11-10T04:24:19.976Z,26.27
2022-11-10T04:26:48.704Z,28.43
2022-11-10T04:29:19.939Z,24.53
2022-11-10T04:31:47.245Z,21.90
2022-11-10T04:34:15.433Z,24.63
2022-11-10T04:36:44.074Z,22.60
2022-11-10T04:39:11.982Z,21.30
2022-11-10T04:41:39.341Z,23.07
2022-11-10T04:44:06.802Z,24.30
2022-11-10T04:46:40.597Z,27.27
2022-11-10T04:49:08.444Z,20.80
2022-11-10T04:51:38.190Z,27.40
2022-11-10T04:54:06.879Z,22.23
2022-11-10T04:56:34.989Z,21.07
2022-11-10T04:59:03.246Z,23.87
2022-11-10T05:01:30.578Z,28.10
2022-11-10T05:04:01.333Z,29.10
2022-11-10T05:06:29.074Z,22.97
2022-11-10T05:08:56.549Z,29.17
2022-11-10T05:11:26.946Z,23.65
2022-11-10T05:13:58.871Z,34.43
2022-11-10T05:16:29.260Z,29.80
2022-11-10T05:18:58.371Z,30.20
2022-11-10T05:21:25.883Z,31.10
2022-11-10T05:23:53.340Z,29.90
2022-11-10T05:26:20.901Z,34.67
2022-11-10T05:28:48.156Z,30.25
2022-11-10T05:31:15.573Z,33.80
2022-11-10T05:33:43.063Z,36.03
2022-11-10T05:36:11.209Z,25.00
2022-11-10T05:38:43.445Z,28.47
2022-11-10T05:41:12.204Z,36.63
2022-11-10T05:43:42.226Z,31.75
2022-11-10T05:46:09.586Z,29.93
2022-11-10T05:48:38.163Z,31.27
2022-11-10T05:51:06.634Z,30.20
2022-11-10T05:53:33.991Z,30.17
2022-11-10T05:56:01.408Z,30.85
2022-11-10T05:58:28.738Z,27.13
2022-11-10T06:00:56.521Z,31.17
2022-11-10T06:03:24.352Z,28.75
2022-11-10T06:05:53.453Z,31.05
2022-11-10T06:08:21.056Z,37.50
2022-11-10T06:10:51.262Z,28.42
2022-11-10T06:13:19.014Z,25.77
2022-11-10T06:15:50.692Z,23.85
2022-11-10T06:18:18.698Z,28.42
2022-11-10T06:20:47.445Z,24.88
2022-11-10T06:23:15.220Z,27.70
2022-11-10T06:25:44.677Z,25.73
2022-11-10T06:28:12.417Z,27.13
2022-11-10T06:30:41.616Z,23.17
2022-11-10T06:33:10.633Z,23.63
2022-11-10T06:35:40.403Z,24.40
2022-11-10T06:38:10.957Z,27.35
2022-11-10T06:40:50.458Z,28.23
2022-11-10T06:43:18.016Z,28.60
2022-11-10T06:45:46.604Z,23.60
2022-11-10T06:48:14.401Z,21.05
2022-11-10T06:50:42.797Z,21.65
2022-11-10T06:53:10.064Z,21.92
2022-11-10T06:55:37.757Z,23.65
2022-11-10T06:58:09.253Z,23.75
2022-11-10T07:00:36.891Z,23.65
2022-11-10T07:06:58.558Z,21.35
2022-11-10T07:09:26.056Z,22.25
2022-11-10T07:11:53.396Z,21.10
2022-11-10T07:14:20.743Z,22.38
2022-11-10T07:16:58.246Z,22.45
2022-11-10T07:19:33.104Z,25.60
2022-11-10T07:22:00.624Z,21.73
2022-11-10T07:24:33.178Z,22.58
2022-11-10T07:27:00.737Z,22.90
2022-11-10T07:29:30.738Z,22.42
2022-11-10T07:32:07.371Z,22.90
2022-11-10T07:34:52.326Z,21.75
2022-11-10T07:37:19.594Z,20.42
2022-11-10T07:39:47.002Z,21.88
2022-11-10T07:42:14.212Z,21.50
2022-11-10T07:44:41.519Z,23.73
2022-11-10T07:47:09.922Z,24.52
2022-11-10T07:49:37.967Z,24.73
2022-11-10T07:52:14.631Z,24.25
2022-11-10T07:54:41.968Z,23.98
2022-11-10T07:57:09.613Z,23.30
2022-11-10T07:59:40.227Z,23.67
2022-11-10T08:02:11.376Z,24.17
2022-11-10T08:04:38.966Z,23.42
2022-11-10T08:07:14.355Z,23.52
2022-11-10T08:09:41.629Z,24.48
2022-11-10T08:12:13.789Z,23.38
2022-11-10T08:14:43.056Z,23.00
2022-11-10T08:17:10.359Z,23.83
2022-11-10T08:19:38.555Z,24.67
2022-11-10T08:22:17.409Z,26.08
2022-11-10T08:24:52.328Z,24.50
2022-11-10T08:27:22.811Z,24.48
2022-11-10T08:29:50.124Z,25.73
2022-11-10T08:32:21.310Z,25.67
2022-11-10T08:34:48.933Z,25.75
2022-11-10T08:37:20.580Z,26.85
2022-11-10T08:39:50.490Z,25.33
2022-11-10T08:42:18.816Z,26.30
2022-11-10T08:44:47.255Z,27.58
2022-11-10T08:47:14.500Z,29.02
2022-11-10T08:49:42.558Z,28.63
2022-11-10T08:52:19.428Z,25.88
2022-11-10T08:54:52.089Z,28.50
2022-11-10T08:57:19.782Z,28.15
2022-11-10T08:59:49.624Z,25.80
2022-11-10T09:02:17.440Z,25.58
2022-11-10T09:04:45.571Z,25.13
2022-11-10T09:07:13.031Z,24.77
2022-11-10T09:10:06.003Z,24.20
2022-11-10T09:12:39.367Z,24.30
2022-11-10T09:15:11.735Z,24.67
2022-11-10T09:17:40.679Z,24.75
2022-11-10T09:20:13.905Z,25.20
2022-11-10T09:22:42.292Z,26.30
2022-11-10T09:25:09.678Z,25.17
2022-11-10T09:27:39.090Z,25.92
2022-11-10T09:30:16.339Z,26.30
2022-11-10T09:32:46.948Z,27.08
2022-11-10T09:35:14.667Z,26.13
2022-11-10T09:37:42.962Z,27.13
2022-11-10T09:40:20.788Z,26.63
2022-11-10T09:43:03.372Z,24.92
2022-11-10T09:45:39.396Z,26.02
2022-11-10T09:48:35.140Z,25.85
2022-11-10T09:51:38.213Z,24.02
2022-11-10T09:54:06.593Z,23.38
2022-11-10T09:56:38.057Z,23.95
2022-11-10T09:59:26.204Z,25.10
2022-11-10T10:02:16.591Z,26.20
2022-11-10T10:05:22.198Z,25.83
2022-11-10T10:08:03.538Z,26.48
2022-11-10T10:10:40.900Z,30.08
2022-11-10T10:13:56.055Z,28.25
2022-11-10T10:16:42.291Z,28.13
2022-11-10T10:19:24.185Z,28.30
2022-11-10T10:22:32.470Z,28.50
2022-11-10T10:25:04.771Z,30.35
2022-11-10T10:27:37.557Z,26.10
2022-11-10T10:30:13.837Z,25.75
2022-11-10T10:32:42.644Z,25.92
2022-11-10T10:35:19.487Z,25.70
2022-11-10T10:37:55.881Z,24.52
2022-11-10T10:40:27.538Z,25.38
2022-11-10T10:43:01.345Z,24.20
2022-11-10T10:45:30.287Z,23.65
2022-11-10T10:48:01.505Z,24.40
2022-11-10T10:50:34.609Z,24.52
2022-11-10T10:53:23.860Z,21.95
2022-11-10T10:56:12.079Z,20.60
2022-11-10T11:02:30.184Z,22.42
2022-11-10T11:05:23.849Z,21.35
2022-11-10T11:08:00.894Z,21.83
2022-11-10T11:10:36.381Z,22.60
2022-11-10T11:13:28.099Z,22.02
2022-11-10T11:16:08.015Z,22.17
2022-11-10T11:18:40.187Z,21.67
2022-11-10T11:21:37.177Z,26.48
2022-11-10T11:24:21.950Z,20.67
2022-11-10T11:26:58.909Z,20.52
2022-11-10T11:29:51.430Z,20.75
2022-11-10T11:32:30.576Z,20.25
2022-11-10T11:35:08.197Z,21.23
2022-11-10T11:37:56.446Z,20.88
2022-11-10T11:40:41.560Z,19.67
2022-11-10T11:43:45.219Z,21.20
2022-11-10T11:46:50.620Z,19.95
2022-11-10T11:49:27.637Z,21.65
2022-11-10T11:52:10.795Z,21.30
2022-11-10T11:54:41.637Z,21.10
2022-11-10T11:57:18.144Z,21.85
2022-11-10T12:00:04.090Z,21.52
2022-11-10T12:02:50.102Z,22.13
2022-11-10T12:05:20.204Z,20.25
2022-11-10T12:08:18.772Z,21.52
2022-11-10T12:11:24.386Z,21.65
2022-11-10T12:14:01.895Z,22.85
2022-11-10T12:16:34.618Z,22.58
2022-11-10T12:19:24.900Z,23.55
2022-11-10T12:21:56.719Z,24.52
2022-11-10T12:24:55.204Z,22.65
2022-11-10T12:27:28.831Z,23.02
2022-11-10T12:30:06.705Z,21.85
2022-11-10T12:32:44.047Z,22.48
2022-11-10T12:35:18.362Z,20.55
2022-11-10T12:37:52.734Z,21.23
2022-11-10T12:40:42.063Z,20.92
2022-11-10T12:43:24.648Z,19.40
2022-11-10T12:45:58.233Z,19.77
2022-11-10T12:48:27.471Z,20.95
2022-11-10T12:50:59.840Z,18.42
2022-11-10T12:53:32.211Z,19.33
2022-11-10T12:56:21.848Z,26.73
2022-11-10T12:58:49.391Z,20.92
2022-11-10T13:01:26.838Z,21.30
2022-11-10T13:04:03.510Z,20.80
2022-11-10T13:06:35.866Z,20.00
2022-11-10T13:09:07.283Z,18.33
2022-11-10T13:11:37.809Z,17.10
2022-11-10T13:14:27.794Z,15.25
2022-11-10T13:16:56.684Z,16.55
2022-11-10T13:19:30.706Z,17.02
2022-11-10T13:22:04.397Z,16.10
2022-11-10T13:24:41.008Z,16.38
2022-11-10T13:27:14.060Z,16.85
2022-11-10T13:29:44.030Z,14.93
2022-11-10T13:32:14.310Z,16.13
2022-11-10T13:34:48.608Z,16.60
2022-11-10T13:37:34.290Z,15.88
2022-11-10T13:40:21.251Z,16.65
2022-11-10T13:42:58.704Z,17.15
2022-11-10T13:45:32.711Z,18.23
2022-11-10T13:48:07.130Z,17.65
2022-11-10T13:51:21.443Z,17.70
2022-11-10T13:54:07.491Z,18.90
2022-11-10T13:57:13.913Z,17.05
2022-11-10T14:00:00.594Z,18.50
2022-11-10T14:02:34.511Z,19.60
2022-11-10T14:05:07.400Z,20.50
2022-11-10T14:07:45.836Z,24.17
2022-11-10T14:10:20.931Z,20.88
2022-11-10T14:13:05.671Z,20.08
2022-11-10T14:15:42.116Z,19.50
2022-11-10T14:18:24.866Z,19.20
2022-11-10T14:21:04.409Z,19.25
2022-11-10T14:23:34.205Z,20.38
2022-11-10T14:26:28.970Z,20.63
2022-11-10T14:28:59.286Z,22.50
2022-11-10T14:31:36.180Z,22.83
2022-11-10T14:34:07.674Z,23.38
2022-11-10T14:36:39.863Z,24.92
2022-11-10T14:44:00.951Z,23.55
2022-11-10T14:49:09.533Z,29.13
2022-11-10T14:53:06.917Z,28.63
2022-11-10T14:55:36.007Z,29.75
2022-11-10T14:58:17.126Z,29.30
2022-11-10T15:00:54.179Z,23.48
2022-11-10T15:04:00.070Z,26.63
2022-11-10T15:06:35.490Z,22.50
2022-11-10T15:09:40.387Z,24.33
2022-11-10T15:12:25.366Z,24.75
2022-11-10T15:15:00.195Z,28.45
2022-11-10T15:17:53.358Z,25.45
2022-11-10T15:21:00.544Z,26.23
2022-11-10T15:23:33.997Z,30.00
2022-11-10T15:26:06.411Z,29.38
2022-11-10T15:28:35.969Z,31.65
2022-11-10T15:31:13.658Z,40.63
2022-11-10T15:33:58.523Z,39.08
2022-11-10T15:36:32.255Z,35.88
2022-11-10T15:39:11.680Z,34.30
2022-11-10T15:42:15.629Z,31.40
2022-11-10T15:44:48.353Z,27.50
2022-11-10T15:47:21.000Z,26.80
2022-11-10T15:49:49.712Z,32.75
2022-11-10T15:52:22.601Z,33.45
2022-11-10T15:54:57.404Z,27.73
2022-11-10T15:57:25.380Z,30.88
2022-11-10T15:59:55.691Z,25.02
2022-11-10T16:02:27.197Z,25.40
2022-11-10T16:04:59.607Z,33.10
2022-11-10T16:07:27.381Z,26.98
2022-11-10T16:09:57.936Z,32.33
2022-11-10T16:12:28.480Z,34.40
2022-11-10T16:15:06.463Z,31.98
2022-11-10T16:18:02.441Z,31.85
2022-11-10T16:20:33.210Z,30.80
2022-11-10T16:23:03.302Z,28.02
2022-11-10T16:25:39.080Z,32.35
2022-11-10T16:28:07.059Z,34.42
2022-11-10T16:30:44.930Z,31.10
2022-11-10T16:33:17.125Z,29.75
2022-11-10T16:35:44.993Z,27.73
2022-11-10T16:38:26.141Z,27.35
2022-11-10T16:41:06.624Z,33.42
2022-11-10T16:43:35.216Z,35.00
2022-11-10T16:46:10.445Z,32.20
2022-11-10T16:48:38.455Z,29.10
2022-11-10T16:51:06.178Z,28.55
2022-11-10T16:53:38.309Z,34.92
2022-11-10T16:56:06.159Z,29.67
2022-11-10T16:58:34.260Z,30.73
2022-11-10T17:01:01.923Z,28.45
2022-11-10T17:03:37.710Z,47.38
2022-11-10T17:06:15.533Z,53.35
2022-11-10T17:08:48.204Z,39.03
2022-11-10T17:11:16.579Z,41.63
2022-11-10T17:13:49.573Z,53.80
2022-11-10T17:16:19.734Z,36.17
2022-11-10T17:18:50.317Z,52.47
2022-11-10T17:21:36.351Z,41.45
2022-11-10T17:24:08.220Z,57.38
2022-11-10T17:26:35.577Z,45.25
2022-11-10T17:29:03.338Z,50.75
2022-11-10T17:31:31.115Z,61.00
2022-11-10T17:34:06.050Z,67.30
2022-11-10T17:36:36.110Z,51.25
2022-11-10T17:39:04.088Z,57.08
2022-11-10T17:41:34.896Z,55.10
2022-11-10T17:44:03.087Z,60.45
2022-11-10T17:46:37.000Z,61.15
2022-11-10T17:49:12.258Z,50.92
2022-11-10T17:51:42.929Z,43.30
2022-11-10T17:54:13.957Z,48.53
2022-11-10T17:56:41.794Z,47.63
2022-11-10T17:59:09.448Z,39.08
2022-11-10T18:01:50.453Z,50.85
2022-11-10T18:05:02.166Z,47.22
2022-11-10T18:07:43.478Z,57.97
2022-11-10T18:10:15.043Z,47.60
2022-11-10T18:12:42.552Z,42.22
2022-11-10T18:15:17.932Z,42.13
2022-11-10T18:17:46.168Z,47.38
2022-11-10T18:20:13.956Z,47.53
2022-11-10T18:22:45.943Z,46.65
2022-11-10T18:25:23.242Z,50.83
2022-11-10T18:27:55.273Z,39.45
2022-11-10T18:30:25.292Z,35.42
2022-11-10T18:32:55.309Z,34.50
2022-11-10T18:35:25.324Z,30.95
2022-11-10T18:37:55.341Z,32.40
2022-11-10T18:44:47.569Z,27.15
2022-11-10T18:48:16.808Z,28.20
2022-11-10T18:54:28.082Z,28.73
2022-11-10T18:57:09.602Z,25.33
2022-11-10T18:59:40.299Z,27.42
2022-11-10T19:02:44.836Z,26.83
2022-11-10T19:05:16.241Z,25.75
2022-11-10T19:07:52.437Z,28.00
2022-11-10T19:10:28.232Z,25.20
2022-11-10T19:13:06.534Z,28.27
2022-11-10T19:15:44.788Z,26.45
2022-11-10T19:18:17.299Z,24.02
2022-11-10T19:24:03.353Z,23.45
2022-11-10T19:26:43.129Z,25.25
2022-11-10T19:29:10.883Z,23.70
2022-11-10T19:31:38.801Z,25.48
2022-11-10T19:34:10.578Z,27.08
2022-11-10T19:36:38.366Z,24.58
2022-11-10T19:39:10.753Z,30.35
2022-11-10T19:41:50.577Z,25.23
2022-11-10T19:44:20.576Z,24.75
2022-11-10T19:47:00.184Z,26.02
2022-11-10T19:49:27.714Z,22.77
2022-11-10T19:55:24.744Z,20.98
2022-11-10T19:59:00.513Z,23.60
2022-11-10T20:01:29.492Z,23.73
2022-11-10T20:04:01.131Z,24.63
2022-11-10T20:06:30.120Z,22.35
2022-11-10T20:08:59.658Z,23.40
2022-11-10T20:11:27.146Z,22.17
2022-11-10T20:14:01.159Z,21.48
2022-11-10T20:16:32.296Z,22.70
2022-11-10T20:19:00.177Z,22.38
2022-11-10T20:21:29.789Z,22.38
2022-11-10T20:23:57.273Z,22.45
2022-11-10T20:26:26.035Z,21.83
2022-11-10T20:28:56.305Z,22.70
2022-11-10T20:31:26.030Z,22.75
2022-11-10T20:33:54.809Z,21.85
2022-11-10T20:36:32.293Z,22.70
2022-11-10T20:39:02.892Z,21.98
2022-11-10T20:41:33.023Z,24.58
2022-11-10T20:44:00.551Z,27.05
2022-11-10T20:46:55.968Z,24.98
2022-11-10T20:49:16.282Z,21.90
2022-11-10T20:51:44.143Z,23.50
2022-11-10T20:54:15.266Z,22.50
2022-11-10T20:56:43.489Z,21.90
2022-11-10T20:59:11.170Z,22.45
2022-11-10T21:01:40.487Z,21.92
2022-11-10T21:04:14.046Z,22.08
2022-11-10T21:06:43.535Z,21.35
2022-11-10T21:09:10.833Z,21.80
2022-11-10T21:11:58.107Z,20.35
2022-11-10T21:14:26.039Z,21.92
2022-11-10T21:16:58.274Z,19.52
2022-11-10T21:19:26.206Z,19.90
2022-11-10T21:21:58.357Z,19.92
2022-11-10T21:24:28.153Z,22.02
2022-11-10T21:26:58.280Z,29.52
2022-11-10T21:29:28.643Z,22.35
2022-11-10T21:31:59.152Z,17.75
2022-11-10T21:34:26.528Z,18.15
2022-11-10T21:36:54.083Z,19.98
2022-11-10T21:39:21.353Z,20.60
2022-11-10T21:41:48.891Z,20.13
2022-11-10T21:44:16.192Z,20.48
2022-11-10T21:46:45.238Z,23.25
2022-11-10T21:49:12.913Z,19.90
2022-11-10T21:51:42.159Z,32.47
2022-11-10T21:54:10.696Z,26.45
2022-11-10T21:56:39.264Z,23.85
2022-11-10T21:59:06.812Z,32.90
2022-11-10T22:01:34.539Z,30.70
2022-11-10T22:04:02.064Z,25.33
2022-11-10T22:06:49.551Z,24.85
2022-11-10T22:09:36.891Z,25.40
2022-11-10T22:12:22.998Z,22.45
2022-11-10T22:15:08.943Z,24.00
2022-11-10T22:17:55.641Z,19.70
2022-11-10T22:20:26.902Z,19.88
2022-11-10T22:22:54.389Z,22.60
2022-11-10T22:25:23.125Z,26.73
2022-11-10T22:27:50.741Z,24.33
2022-11-10T22:30:18.171Z,23.90
2022-11-10T22:32:45.519Z,22.50
2022-11-10T22:35:32.835Z,21.23
2022-11-10T22:38:04.553Z,21.23
2022-11-10T22:40:51.200Z,24.23
2022-11-10T22:43:36.976Z,19.85
2022-11-10T22:46:04.941Z,18.50
2022-11-10T22:48:32.862Z,17.67
2022-11-10T22:51:00.668Z,22.63
2022-11-10T22:53:28.824Z,20.02
2022-11-10T22:55:59.573Z,18.57
2022-11-10T22:58:27.162Z,20.40
2022-11-10T23:01:03.951Z,18.88
2022-11-10T23:03:31.888Z,34.13
2022-11-10T23:05:59.100Z,25.70
2022-11-10T23:08:27.444Z,18.50
2022-11-10T23:11:02.319Z,18.33
2022-11-10T23:13:30.103Z,17.63
2022-11-10T23:16:08.720Z,17.60
2022-11-10T23:18:38.547Z,18.73
2022-11-10T23:21:08.044Z,15.88
2022-11-10T23:23:37.651Z,15.50
2022-11-10T23:26:07.658Z,15.50
2022-11-10T23:28:35.715Z,15.85
2022-11-10T23:31:26.656Z,16.02
2022-11-10T23:33:58.512Z,14.43
2022-11-10T23:36:27.468Z,15.30
2022-11-10T23:38:55.585Z,16.52
2022-11-10T23:41:23.810Z,16.02
2022-11-10T23:43:52.962Z,16.35
2022-11-10T23:46:20.372Z,17.23
2022-11-10T23:48:47.645Z,16.07
2022-11-10T23:51:15.995Z,15.82
2022-11-10T23:53:43.370Z,16.70
2022-11-10T23:56:13.020Z,15.63
2022-11-10T23:58:40.961Z,16.92
